Time;durP1;ratioP1;P1;durP2;ratioP2;P2;SDS_P1;SDS_P2;PMS_P1;PMS_P2;Temp;Humidity;BMP_temperature;BMP_pressure;BME280_temperature;BME280_humidity;BME280_pressure;Samples;Min_cycle;Max_cycle;Signal;HPM_P1;HPM_P2
2021/01/17 00:02:27;;;;;;;52.35;16.57;;;;;;;-14.79;100.00;100575.79;10608748;83;21075;-79
2021/01/17 00:17:31;;;;;;;62.60;21.05;;;;;;;-14.73;100.00;100584.31;10603939;83;21208;-81
2021/01/17 00:32:36;;;;;;;59.08;16.52;;;;;;;-14.79;100.00;100591.77;10619769;82;21058;-81
2021/01/17 00:47:46;;;;;;;50.95;14.18;;;;;;;-14.53;100.00;100623.31;10645698;83;21048;-78
2021/01/17 01:02:50;;;;;;;24.05;10.38;;;;;;;-14.66;100.00;100653.34;10646973;83;21479;-78
2021/01/17 01:17:56;;;;;;;50.67;15.70;;;;;;;-14.84;100.00;100653.80;10637831;81;21103;-79
2021/01/17 01:33:00;;;;;;;64.32;17.75;;;;;;;-15.10;100.00;100677.98;10669943;81;21059;-80
2021/01/17 01:48:07;;;;;;;44.33;17.73;;;;;;;-15.12;100.00;100685.92;10427261;82;21357;-80
2021/01/17 02:03:34;;;;;;;43.00;16.82;;;;;;;-15.14;100.00;100674.12;10377524;84;21160;-79
2021/01/17 02:19:15;;;;;;;29.30;10.00;;;;;;;-15.44;100.00;100681.37;10380269;84;20999;-79
2021/01/17 02:34:19;;;;;;;54.60;16.25;;;;;;;-15.47;100.00;100694.73;10385533;86;21106;-79
2021/01/17 02:49:24;;;;;;;38.53;14.83;;;;;;;-15.36;100.00;100677.80;10720594;81;21036;-80
2021/01/17 03:04:34;;;;;;;46.55;13.90;;;;;;;-15.67;99.47;100680.41;10761871;81;21174;-78
2021/01/17 03:19:38;;;;;;;45.52;11.48;;;;;;;-15.84;98.31;100674.98;10739777;81;21040;-79
2021/01/17 03:50:48;;;;;;;47.48;18.90;;;;;;;-16.16;97.67;100677.92;10658606;82;21179;-81
2021/01/17 04:05:53;;;;;;;42.85;13.55;;;;;;;-16.10;97.96;100710.75;10616336;83;21039;-79
2021/01/17 04:20:57;;;;;;;56.58;18.37;;;;;;;-16.41;96.65;100728.75;10277136;86;21127;-80
2021/01/17 04:36:01;;;;;;;85.87;26.60;;;;;;;-16.59;95.93;100712.31;10735431;83;21098;-79
2021/01/17 04:51:10;;;;;;;26.17;9.10;;;;;;;-16.49;96.42;100721.41;10762590;82;21017;-79
2021/01/17 05:06:28;;;;;;;20.32;9.78;;;;;;;-16.52;96.55;100713.38;10676522;83;21075;-78
2021/01/17 05:21:35;;;;;;;21.42;8.58;;;;;;;-16.79;96.44;100727.22;10248625;85;21092;-80
2021/01/17 05:36:39;;;;;;;37.15;15.18;;;;;;;-16.98;96.31;100741.75;10439024;83;21101;-78
2021/01/17 05:51:44;;;;;;;22.85;12.98;;;;;;;-16.85;96.22;100759.66;10604883;82;21080;-79
2021/01/17 06:06:53;;;;;;;46.13;22.07;;;;;;;-16.85;95.93;100769.70;10589652;83;21104;-79
2021/01/17 06:22:03;;;;;;;71.80;24.50;;;;;;;-17.02;96.06;100808.98;10168746;87;21021;-78
2021/01/17 06:37:08;;;;;;;76.25;25.12;;;;;;;-17.21;95.78;100816.70;10598010;83;21491;-77
2021/01/17 06:52:16;;;;;;;40.20;19.42;;;;;;;-17.18;95.86;100833.10;10323374;85;21045;-80
2021/01/17 07:07:52;;;;;;;92.20;28.80;;;;;;;-17.18;95.69;100844.39;10744695;81;21000;-79
2021/01/17 07:22:58;;;;;;;184.57;64.07;;;;;;;-17.54;95.05;100869.93;10732982;81;20988;-79
2021/01/17 07:38:09;;;;;;;222.07;65.42;;;;;;;-17.16;97.79;100877.52;10743006;83;21124;-82
2021/01/17 07:53:41;;;;;;;121.42;39.13;;;;;;;-17.28;95.97;100885.89;10742232;82;21210;-81
2021/01/17 08:08:49;;;;;;;473.05;145.22;;;;;;;-17.11;96.12;100923.71;10719463;82;21493;-82
2021/01/17 08:24:22;;;;;;;396.68;116.22;;;;;;;-16.88;95.60;100936.58;10720341;81;21060;-81
2021/01/17 08:39:45;;;;;;;311.27;97.22;;;;;;;-16.60;94.50;100957.17;10721463;81;21442;-82
2021/01/17 08:54:51;;;;;;;172.40;58.17;;;;;;;-15.65;94.01;100970.62;10822420;82;21492;-81
2021/01/17 09:10:09;;;;;;;129.55;41.08;;;;;;;-14.56;95.47;100995.39;10810127;81;21106;-80
2021/01/17 09:25:13;;;;;;;212.53;66.05;;;;;;;-13.86;97.41;101008.86;10816557;81;20987;-80
2021/01/17 09:40:18;;;;;;;271.93;76.80;;;;;;;-13.86;86.88;101010.13;10799716;81;21142;-82
2021/01/17 09:55:24;;;;;;;210.93;64.07;;;;;;;-12.56;91.53;101024.59;10699488;82;21079;-80
2021/01/17 10:10:29;;;;;;;181.87;54.18;;;;;;;-11.59;90.40;101046.81;10707888;82;21088;-81
2021/01/17 10:25:34;;;;;;;377.77;111.50;;;;;;;-10.79;90.61;101058.45;10708709;82;21043;-81
2021/01/17 10:40:40;;;;;;;188.35;55.65;;;;;;;-10.23;91.03;101045.06;10728111;81;21103;-84
2021/01/17 10:55:49;;;;;;;210.40;47.93;;;;;;;-9.68;91.85;101051.47;10720665;81;21036;-81
2021/01/17 11:11:00;;;;;;;240.52;76.05;;;;;;;-9.12;81.63;101042.05;10722354;81;21063;-81
2021/01/17 11:26:07;;;;;;;152.22;40.20;;;;;;;-8.78;71.26;101038.39;10709707;81;21004;-81
2021/01/17 11:41:13;;;;;;;245.88;62.13;;;;;;;-7.86;77.93;101049.14;10730425;81;21055;-81
2021/01/17 11:56:18;;;;;;;170.50;51.58;;;;;;;-7.75;71.24;101047.86;10813892;81;21150;-81
2021/01/17 12:11:40;;;;;;;121.22;34.70;;;;;;;-7.88;63.41;101038.13;10802584;81;21449;-81
2021/01/17 12:26:46;;;;;;;97.40;31.05;;;;;;;-7.41;62.84;101013.86;10830250;81;21087;-78
2021/01/17 12:41:55;;;;;;;308.50;90.65;;;;;;;-6.95;68.05;101021.36;10837564;81;21131;-79
2021/01/17 12:56:59;;;;;;;96.00;30.08;;;;;;;-6.75;62.66;101012.77;10831398;81;21008;-84
2021/01/17 13:12:08;;;;;;;96.05;29.05;;;;;;;-6.61;64.93;101029.28;10831611;81;21122;-79
2021/01/17 13:27:12;;;;;;;105.30;34.53;;;;;;;-5.88;60.59;101035.58;10820512;81;21162;-78
2021/01/17 13:42:21;;;;;;;205.60;67.05;;;;;;;-1.51;61.78;101047.96;10800771;81;21225;-77
2021/01/17 13:57:25;;;;;;;321.50;84.00;;;;;;;-1.23;54.54;101055.41;10808606;81;21043;-77
2021/01/17 14:12:30;;;;;;;262.27;74.37;;;;;;;-2.09;58.24;101064.83;10816519;81;21130;-77
2021/01/17 14:27:35;;;;;;;437.80;124.93;;;;;;;-6.71;56.79;101042.53;10805002;81;21130;-75
2021/01/17 14:42:41;;;;;;;655.42;235.85;;;;;;;-9.15;57.25;101052.64;10811928;81;21035;-78
2021/01/17 14:57:51;;;;;;;460.95;125.70;;;;;;;-10.24;59.38;101069.60;10813086;81;21102;-78
2021/01/17 15:12:56;;;;;;;489.20;123.67;;;;;;;-11.00;61.55;101073.41;10843171;81;21122;-80
2021/01/17 15:28:00;;;;;;;513.52;122.22;;;;;;;-11.47;62.35;101075.27;10819801;81;21066;-79
2021/01/17 15:43:05;;;;;;;393.70;87.17;;;;;;;-12.17;64.16;101080.08;10823005;81;21043;-78
2021/01/17 15:58:10;;;;;;;255.15;57.35;;;;;;;-12.91;65.55;101090.45;10841082;81;21049;-78
2021/01/17 16:13:15;;;;;;;954.40;272.48;;;;;;;-13.22;67.47;101085.18;10780871;81;21043;-78
2021/01/17 16:28:19;;;;;;;304.15;84.45;;;;;;;-13.63;67.57;101083.83;10810229;82;21106;-80
2021/01/17 16:43:24;;;;;;;408.23;106.97;;;;;;;-14.06;68.75;101067.25;10834514;81;21051;-80
2021/01/17 16:58:29;;;;;;;223.15;61.25;;;;;;;-14.65;69.44;101087.16;10843393;82;21097;-81
2021/01/17 17:13:36;;;;;;;306.55;70.32;;;;;;;-14.88;70.21;101114.23;10454407;84;22142;-79
2021/01/17 17:28:41;;;;;;;621.58;169.13;;;;;;;-14.94;70.79;101101.03;10480397;85;21007;-80
2021/01/17 17:43:48;;;;;;;263.52;90.10;;;;;;;-15.07;71.64;101111.56;10482014;85;21029;-79
2021/01/17 17:58:53;;;;;;;572.85;175.47;;;;;;;-15.40;72.01;101117.28;10367588;84;21175;-79
2021/01/17 18:13:58;;;;;;;494.55;161.10;;;;;;;-15.75;72.69;101133.38;10679742;82;21202;-79
2021/01/17 18:29:04;;;;;;;176.12;71.17;;;;;;;-15.94;73.35;101133.19;10656649;83;21183;-79
2021/01/17 18:44:08;;;;;;;507.45;154.93;;;;;;;-16.19;73.87;101144.95;10680453;82;21485;-78
2021/01/17 18:59:12;;;;;;;366.17;156.40;;;;;;;-16.18;74.62;101154.17;10739524;82;21126;-79
2021/01/17 19:14:18;;;;;;;249.88;85.80;;;;;;;-16.50;74.91;101155.56;10727570;81;21025;-79
2021/01/17 19:29:22;;;;;;;443.45;142.20;;;;;;;-16.87;75.70;101148.78;10733419;81;21159;-80
2021/01/17 19:44:28;;;;;;;789.58;244.22;;;;;;;-16.86;75.88;101154.27;10758296;82;21106;-80
2021/01/17 19:59:35;;;;;;;362.02;110.97;;;;;;;-16.96;76.27;101154.33;10840333;81;21063;-80
2021/01/17 20:14:41;;;;;;;423.93;121.90;;;;;;;-17.01;76.75;101149.53;10823020;82;21898;-81
2021/01/17 20:29:46;;;;;;;249.30;86.82;;;;;;;-17.44;76.17;101145.39;10835084;81;21118;-80
2021/01/17 20:44:52;;;;;;;175.53;51.15;;;;;;;-17.60;76.71;101152.70;10835171;82;21072;-79
2021/01/17 20:59:56;;;;;;;202.87;70.30;;;;;;;-17.72;76.99;101152.19;10819841;82;21028;-80
2021/01/17 21:15:02;;;;;;;241.88;83.05;;;;;;;-17.64;77.36;101167.13;10833754;81;21044;-80
2021/01/17 21:30:11;;;;;;;124.80;41.55;;;;;;;-17.54;78.32;101167.97;10837405;81;21039;-78
2021/01/17 21:45:18;;;;;;;185.63;60.30;;;;;;;-17.54;78.25;101173.40;10827393;81;21063;-80
2021/01/17 22:00:26;;;;;;;108.40;42.23;;;;;;;-17.95;78.23;101158.39;10831243;81;21118;-79
2021/01/17 22:15:32;;;;;;;173.03;64.80;;;;;;;-18.28;78.10;101169.55;10820749;81;21158;-79
2021/01/17 22:30:37;;;;;;;89.65;41.55;;;;;;;-18.05;78.58;101170.95;10820854;81;21035;-79
2021/01/17 22:45:43;;;;;;;273.15;76.02;;;;;;;-18.23;78.54;101143.83;10827469;81;21493;-81
2021/01/17 23:00:48;;;;;;;284.67;81.60;;;;;;;-18.42;78.47;101138.03;10849035;82;21464;-80
2021/01/17 23:15:55;;;;;;;365.10;110.42;;;;;;;-18.29;80.23;101144.05;10840743;81;21236;-80
2021/01/17 23:31:00;;;;;;;63.50;42.80;;;;;;;-18.37;81.48;101129.06;10855006;81;21043;-80
2021/01/17 23:46:06;;;;;;;195.35;63.65;;;;;;;-17.92;81.89;101124.27;10838024;81;21071;-81
